Time;durP1;ratioP1;P1;durP2;ratioP2;P2;SDS_P1;SDS_P2;PMS_P1;PMS_P2;Temp;Humidity;BMP_temperature;BMP_pressure;BME280_temperature;BME280_humidity;BME280_pressure;Samples;Min_cycle;Max_cycle;Signal;HPM_P1;HPM_P2
2020/12/18 08:39:28;;;;;;;29.70;7.05;;;23.10;99.90;;;;;;5165022;23;20153;-88
2020/12/18 08:41:56;;;;;;;33.55;8.02;;;23.10;99.90;;;;;;4962076;23;20539;-90
2020/12/18 08:44:28;;;;;;;35.45;9.05;;;23.10;99.90;;;;;;4946273;28;20031;-90
2020/12/18 08:46:57;;;;;;;36.83;8.98;;;23.00;99.90;;;;;;4972420;23;20113;-91
2020/12/18 08:49:27;;;;;;;36.08;7.45;;;23.10;99.90;;;;;;4967023;28;20078;-91
2020/12/18 08:51:56;;;;;;;34.70;7.40;;;23.00;99.90;;;;;;4976939;28;20023;-93
2020/12/18 08:54:32;;;;;;;36.58;8.55;;;23.00;99.90;;;;;;4958719;28;20518;-93
2020/12/18 08:57:26;;;;;;;27.25;7.82;;;23.00;99.90;;;;;;4979571;23;20097;-90
2020/12/18 09:00:09;;;;;;;29.77;8.50;;;22.90;99.90;;;;;;4956280;28;20030;-91
2020/12/18 09:02:41;;;;;;;39.17;8.00;;;22.80;99.90;;;;;;4960256;28;20019;-92
2020/12/18 09:05:36;;;;;;;33.60;7.85;;;22.70;99.90;;;;;;4973083;28;20035;-91
2020/12/18 09:08:15;;;;;;;34.40;8.05;;;22.70;99.90;;;;;;4973423;28;20041;-87
2020/12/18 09:10:55;;;;;;;34.58;8.05;;;22.70;99.90;;;;;;4959105;28;20023;-90
2020/12/18 09:13:31;;;;;;;32.92;7.80;;;22.60;99.90;;;;;;4994297;23;20669;-92
2020/12/18 09:16:08;;;;;;;34.17;8.48;;;22.60;99.90;;;;;;4974085;28;20022;-93
2020/12/18 09:18:41;;;;;;;24.00;7.38;;;22.60;99.90;;;;;;4955947;28;20070;-93
2020/12/18 09:21:18;;;;;;;25.45;6.70;;;22.60;99.90;;;;;;4971187;28;20479;-96
2020/12/18 09:23:49;;;;;;;27.10;7.13;;;22.60;99.90;;;;;;4939921;28;20042;-92
2020/12/18 09:26:28;;;;;;;30.42;6.90;;;22.60;99.90;;;;;;4972644;28;20015;-88
2020/12/18 09:28:56;;;;;;;31.70;8.52;;;22.60;99.90;;;;;;4965504;28;20062;-90
2020/12/18 09:31:24;;;;;;;33.83;8.05;;;22.60;99.90;;;;;;4954704;28;20091;-89
2020/12/18 09:33:52;;;;;;;29.58;7.40;;;22.50;99.90;;;;;;4972686;28;20031;-88
2020/12/18 09:36:19;;;;;;;28.85;6.13;;;22.40;99.90;;;;;;4953690;28;20027;-87
2020/12/18 09:38:52;;;;;;;30.30;6.43;;;22.40;99.90;;;;;;4958709;28;20042;-90
2020/12/18 09:41:22;;;;;;;26.00;7.05;;;22.40;99.90;;;;;;4974785;28;20606;-88
2020/12/18 09:43:50;;;;;;;27.30;7.25;;;22.30;99.90;;;;;;4975263;28;20042;-92
2020/12/18 09:46:21;;;;;;;36.63;9.25;;;22.30;99.90;;;;;;4979188;23;20421;-95
2020/12/18 09:48:50;;;;;;;25.65;6.30;;;22.30;99.90;;;;;;4945988;28;20039;-95
2020/12/18 09:51:18;;;;;;;33.25;6.80;;;22.30;99.90;;;;;;4952569;28;20023;-93
2020/12/18 09:53:46;;;;;;;33.60;7.03;;;22.30;99.90;;;;;;4934539;28;20042;-90
2020/12/18 09:56:15;;;;;;;35.70;8.23;;;22.30;99.90;;;;;;4938921;29;20420;-94
2020/12/18 09:58:46;;;;;;;35.45;7.65;;;22.30;99.90;;;;;;4958259;28;20042;-95
2020/12/18 10:01:23;;;;;;;25.05;6.00;;;22.20;99.90;;;;;;4939356;28;20031;-92
2020/12/18 10:03:51;;;;;;;31.60;6.95;;;22.20;99.90;;;;;;4957440;28;20058;-95
2020/12/18 10:06:26;;;;;;;34.95;6.85;;;22.10;99.90;;;;;;4961555;28;20362;-91
2020/12/18 10:08:53;;;;;;;29.55;6.55;;;22.10;99.90;;;;;;4955632;28;20519;-89
2020/12/18 10:11:28;;;;;;;36.88;8.18;;;22.10;99.90;;;;;;4953958;28;20035;-92
2020/12/18 10:13:55;;;;;;;32.13;6.90;;;22.10;99.90;;;;;;4938964;29;20034;-95
2020/12/18 10:16:22;;;;;;;39.20;7.35;;;22.10;99.90;;;;;;4957249;28;20047;-94
2020/12/18 10:18:50;;;;;;;33.95;8.52;;;22.00;99.90;;;;;;4953561;28;20052;-92
2020/12/18 10:21:17;;;;;;;31.52;8.02;;;22.10;99.90;;;;;;4952575;28;20022;-93
2020/12/18 10:23:44;;;;;;;36.00;7.20;;;22.10;99.90;;;;;;4938078;28;20034;-96
2020/12/18 10:26:12;;;;;;;46.60;8.85;;;22.10;99.90;;;;;;4953370;28;20024;-95
2020/12/18 10:28:39;;;;;;;34.90;7.60;;;22.00;99.90;;;;;;4950974;28;20031;-90
2020/12/18 10:31:06;;;;;;;39.67;8.48;;;22.00;99.90;;;;;;4917887;29;20050;-86
2020/12/18 10:33:33;;;;;;;35.92;7.15;;;22.00;99.90;;;;;;4950209;28;20070;-87
2020/12/18 10:36:01;;;;;;;31.33;7.15;;;22.00;99.90;;;;;;4951844;28;20086;-90
2020/12/18 10:38:29;;;;;;;29.80;6.93;;;22.00;99.90;;;;;;4944382;28;20039;-87
2020/12/18 10:40:56;;;;;;;31.80;6.65;;;22.00;99.90;;;;;;4952234;28;20032;-90
2020/12/18 10:43:23;;;;;;;33.25;8.52;;;22.00;99.90;;;;;;4938591;28;20027;-88
2020/12/18 10:45:52;;;;;;;31.35;7.57;;;22.00;99.90;;;;;;4950219;23;20473;-88
2020/12/18 10:48:19;;;;;;;30.60;7.68;;;22.00;99.90;;;;;;4984083;23;20451;-87
2020/12/18 10:50:47;;;;;;;31.23;6.97;;;22.00;99.90;;;;;;4988827;23;20154;-87
2020/12/18 10:53:14;;;;;;;24.40;5.72;;;22.00;99.90;;;;;;4978363;23;20038;-88
2020/12/18 10:55:44;;;;;;;33.92;6.72;;;22.00;99.90;;;;;;4971918;28;20038;-88
2020/12/18 10:58:14;;;;;;;23.80;6.68;;;22.10;99.90;;;;;;4971696;28;20023;-88
2020/12/18 11:00:42;;;;;;;27.75;6.60;;;22.00;99.90;;;;;;4955284;28;20027;-90
2020/12/18 11:03:10;;;;;;;25.85;6.45;;;22.10;99.90;;;;;;4981586;23;20664;-92
2020/12/18 11:05:37;;;;;;;29.30;6.20;;;22.10;99.90;;;;;;4956787;28;20026;-90
2020/12/18 11:08:04;;;;;;;25.08;6.38;;;22.10;99.90;;;;;;4970923;28;20034;-88
2020/12/18 11:10:32;;;;;;;28.88;6.28;;;22.10;99.90;;;;;;4959855;28;20027;-87
2020/12/18 11:12:59;;;;;;;26.55;6.63;;;22.10;99.90;;;;;;4954823;28;20018;-86
2020/12/18 11:15:26;;;;;;;28.52;5.95;;;22.10;99.90;;;;;;4974590;28;20038;-86
2020/12/18 11:17:56;;;;;;;27.20;6.18;;;22.10;99.90;;;;;;4974068;28;20062;-87
2020/12/18 11:20:23;;;;;;;28.00;6.15;;;22.10;99.90;;;;;;4974930;23;20586;-86
2020/12/18 11:22:51;;;;;;;26.48;5.70;;;22.10;99.90;;;;;;4955231;28;20039;-85
2020/12/18 11:25:18;;;;;;;28.50;5.20;;;22.10;99.90;;;;;;4931730;29;20027;-86
2020/12/18 11:27:45;;;;;;;19.35;6.05;;;22.10;99.90;;;;;;4954692;28;20039;-86
2020/12/18 11:30:14;;;;;;;20.83;7.05;;;22.10;99.90;;;;;;4954866;28;20027;-87
2020/12/18 11:32:42;;;;;;;23.52;4.88;;;22.10;99.90;;;;;;4936627;28;20435;-87
2020/12/18 11:35:09;;;;;;;19.45;5.75;;;22.00;99.90;;;;;;4945528;28;20027;-86
2020/12/18 11:37:36;;;;;;;28.30;6.57;;;22.00;99.90;;;;;;4951157;28;20019;-88
2020/12/18 11:40:06;;;;;;;27.27;6.65;;;22.00;99.90;;;;;;4951688;28;20034;-86
2020/12/18 11:42:33;;;;;;;21.05;4.65;;;22.10;99.90;;;;;;4956922;28;20032;-87
2020/12/18 11:45:01;;;;;;;27.60;6.75;;;22.10;99.90;;;;;;4953670;28;20039;-89
2020/12/18 11:47:28;;;;;;;26.75;5.93;;;22.00;99.90;;;;;;4954425;28;20101;-87
2020/12/18 11:49:55;;;;;;;29.55;6.63;;;22.00;99.90;;;;;;4935264;29;20055;-87
2020/12/18 11:52:23;;;;;;;29.25;6.38;;;21.90;99.90;;;;;;4967271;23;20077;-87
2020/12/18 11:54:50;;;;;;;24.65;5.88;;;21.90;99.90;;;;;;4972212;28;20030;-87
2020/12/18 11:57:17;;;;;;;26.88;5.97;;;21.90;99.90;;;;;;4971823;28;20023;-86
2020/12/18 11:59:45;;;;;;;28.17;5.88;;;21.80;99.90;;;;;;4971210;28;20377;-87
2020/12/18 12:02:12;;;;;;;27.45;6.10;;;21.70;99.90;;;;;;4971966;28;20018;-88
2020/12/18 12:04:40;;;;;;;33.58;5.85;;;21.60;99.90;;;;;;4967638;28;20030;-88
2020/12/18 12:07:07;;;;;;;44.33;6.82;;;21.60;99.90;;;;;;4971417;28;20097;-87
2020/12/18 12:09:34;;;;;;;26.58;5.82;;;21.50;99.90;;;;;;4954266;28;20039;-88
2020/12/18 12:12:01;;;;;;;24.25;5.72;;;21.50;99.90;;;;;;4971105;28;20023;-88
2020/12/18 12:14:29;;;;;;;24.58;5.68;;;21.40;99.90;;;;;;4966150;28;20106;-86
2020/12/18 12:16:56;;;;;;;23.05;5.95;;;21.30;99.90;;;;;;4963587;28;20066;-86
2020/12/18 12:19:24;;;;;;;23.58;4.93;;;21.30;99.90;;;;;;4964220;28;20028;-86
2020/12/18 12:21:52;;;;;;;27.85;6.05;;;21.20;99.90;;;;;;4952854;28;20396;-87
2020/12/18 12:24:19;;;;;;;27.80;5.55;;;21.20;99.90;;;;;;4973466;28;20472;-88
2020/12/18 12:26:49;;;;;;;22.38;5.72;;;21.10;99.90;;;;;;4973103;28;20484;-87
2020/12/18 12:29:18;;;;;;;27.20;5.97;;;21.00;99.90;;;;;;4973464;28;20046;-87
2020/12/18 12:31:48;;;;;;;31.20;6.57;;;21.00;99.90;;;;;;4955673;28;20023;-87
2020/12/18 12:34:15;;;;;;;25.50;5.30;;;21.00;99.90;;;;;;4956179;28;20042;-88
2020/12/18 12:36:43;;;;;;;29.08;5.55;;;20.90;99.90;;;;;;4970204;28;20099;-89
2020/12/18 12:39:10;;;;;;;27.17;5.18;;;20.90;99.90;;;;;;4973085;28;20023;-88
2020/12/18 12:41:37;;;;;;;26.20;4.95;;;20.80;99.90;;;;;;4974327;28;20033;-92
2020/12/18 12:44:05;;;;;;;24.35;4.85;;;20.80;99.90;;;;;;4974512;28;20081;-85
2020/12/18 12:46:37;;;;;;;25.85;5.22;;;20.70;99.90;;;;;;4973105;28;20129;-92
2020/12/18 12:49:04;;;;;;;26.88;4.85;;;20.60;99.90;;;;;;4974239;28;20047;-89
2020/12/18 12:51:32;;;;;;;23.38;6.93;;;20.60;99.90;;;;;;4974411;28;20118;-93
2020/12/18 12:53:59;;;;;;;27.20;6.30;;;20.60;99.90;;;;;;4987892;23;20660;-89
2020/12/18 12:56:27;;;;;;;24.98;5.00;;;20.50;99.90;;;;;;4990334;23;20130;-91
2020/12/18 12:58:54;;;;;;;25.00;5.47;;;20.50;99.90;;;;;;4971461;28;20610;-90
2020/12/18 13:01:21;;;;;;;30.15;6.25;;;20.50;99.90;;;;;;4988666;23;20141;-90
2020/12/18 13:03:48;;;;;;;34.20;5.57;;;20.40;99.90;;;;;;4972863;28;20027;-89
2020/12/18 13:06:23;;;;;;;21.27;4.85;;;20.40;99.90;;;;;;4956266;28;20054;-90
2020/12/18 13:08:50;;;;;;;28.55;5.93;;;20.40;99.90;;;;;;4940615;28;20038;-89
2020/12/18 13:11:18;;;;;;;36.33;6.97;;;20.30;99.90;;;;;;4989404;23;20142;-89
2020/12/18 13:13:45;;;;;;;30.23;6.63;;;20.30;99.90;;;;;;4969720;28;20049;-89
2020/12/18 13:16:18;;;;;;;27.90;6.20;;;20.30;99.90;;;;;;4973216;28;20071;-90
2020/12/18 13:18:46;;;;;;;30.52;5.70;;;20.30;99.90;;;;;;4973749;28;20089;-90
2020/12/18 13:21:13;;;;;;;30.42;6.20;;;20.20;99.90;;;;;;4973013;28;20015;-87
2020/12/18 13:23:41;;;;;;;28.05;5.75;;;20.00;99.90;;;;;;4972156;28;20027;-84
2020/12/18 13:26:08;;;;;;;27.90;5.40;;;19.90;99.90;;;;;;4979368;23;20055;-86
2020/12/18 13:28:35;;;;;;;30.55;6.20;;;19.70;99.90;;;;;;4972121;28;20038;-90
2020/12/18 13:31:03;;;;;;;28.02;5.72;;;19.70;99.90;;;;;;4961067;28;20523;-88
2020/12/18 13:33:30;;;;;;;26.90;5.25;;;19.70;99.90;;;;;;4955888;28;20125;-87
2020/12/18 13:35:57;;;;;;;26.92;4.82;;;19.60;99.90;;;;;;4973284;28;20064;-87
2020/12/18 13:38:25;;;;;;;30.98;8.52;;;19.60;99.90;;;;;;4955810;28;20586;-86
2020/12/18 13:40:53;;;;;;;25.58;5.90;;;19.60;99.90;;;;;;4970871;28;20409;-88
2020/12/18 13:43:21;;;;;;;27.35;5.43;;;19.60;99.90;;;;;;4973041;28;20023;-87
2020/12/18 13:45:48;;;;;;;29.27;5.70;;;19.60;99.90;;;;;;4973069;28;20034;-88
2020/12/18 13:48:15;;;;;;;24.77;5.97;;;19.60;99.90;;;;;;4972753;28;20031;-89
2020/12/18 13:50:42;;;;;;;25.85;5.15;;;19.60;99.90;;;;;;4972897;28;20433;-89
2020/12/18 13:53:10;;;;;;;32.30;5.65;;;19.60;99.90;;;;;;4966035;28;20027;-89
2020/12/18 13:55:37;;;;;;;31.02;7.07;;;19.60;99.90;;;;;;4954569;28;20054;-87
2020/12/18 13:58:07;;;;;;;32.05;6.85;;;19.60;99.90;;;;;;4973421;28;20034;-89
2020/12/18 14:00:34;;;;;;;31.83;6.47;;;19.60;99.90;;;;;;4980538;23;20054;-89
2020/12/18 14:03:02;;;;;;;30.65;6.32;;;19.60;99.90;;;;;;4971509;28;20027;-89
2020/12/18 14:05:29;;;;;;;26.23;5.63;;;19.60;99.90;;;;;;4971864;28;20357;-89
2020/12/18 14:07:57;;;;;;;26.75;6.47;;;19.60;99.90;;;;;;4953046;28;20035;-90
2020/12/18 14:10:24;;;;;;;25.80;5.60;;;19.60;99.90;;;;;;4972270;28;20030;-89
2020/12/18 14:12:51;;;;;;;34.00;6.38;;;19.50;99.90;;;;;;4972836;28;20023;-90
2020/12/18 14:15:18;;;;;;;29.30;6.63;;;19.60;99.90;;;;;;4973541;28;20438;-88
2020/12/18 14:17:46;;;;;;;34.55;6.35;;;19.60;99.90;;;;;;4973765;28;20035;-89
2020/12/18 14:20:14;;;;;;;30.95;5.47;;;19.60;99.90;;;;;;4973556;28;20031;-91
2020/12/18 14:22:42;;;;;;;35.83;8.00;;;19.60;99.90;;;;;;4967069;28;20082;-91
2020/12/18 14:25:09;;;;;;;23.45;5.70;;;19.60;99.90;;;;;;4959301;28;20031;-90
2020/12/18 14:27:36;;;;;;;28.13;6.03;;;19.70;99.90;;;;;;4953717;28;20209;-90
2020/12/18 14:30:04;;;;;;;27.85;6.68;;;19.60;99.90;;;;;;4937819;28;20460;-89
2020/12/18 14:32:34;;;;;;;21.30;4.82;;;19.60;99.90;;;;;;4972494;28;20191;-87
2020/12/18 14:35:06;;;;;;;29.73;6.25;;;19.60;99.90;;;;;;4957278;28;20038;-90
2020/12/18 14:37:34;;;;;;;21.98;4.88;;;19.60;99.90;;;;;;4975539;28;20431;-87
2020/12/18 14:40:03;;;;;;;26.05;5.13;;;19.60;99.90;;;;;;4975598;28;20505;-92
2020/12/18 14:42:30;;;;;;;35.83;5.60;;;19.60;99.90;;;;;;4975289;28;20039;-91
2020/12/18 14:44:57;;;;;;;27.55;4.68;;;19.60;99.90;;;;;;4958145;28;20093;-89
2020/12/18 14:47:25;;;;;;;26.77;5.68;;;19.60;99.90;;;;;;4970136;28;20026;-92
2020/12/18 14:49:52;;;;;;;34.22;6.30;;;19.60;99.90;;;;;;4971056;28;20429;-91
2020/12/18 14:52:19;;;;;;;29.02;5.75;;;19.60;99.90;;;;;;4974897;28;20042;-91
2020/12/18 14:54:47;;;;;;;29.13;5.25;;;19.50;99.90;;;;;;4975349;28;20046;-90
2020/12/18 14:57:14;;;;;;;22.95;4.47;;;19.50;99.90;;;;;;4975158;28;20070;-90
2020/12/18 14:59:41;;;;;;;23.95;5.05;;;19.60;99.90;;;;;;4981998;23;20050;-92
2020/12/18 15:02:09;;;;;;;28.42;6.03;;;19.50;99.90;;;;;;4986068;23;20046;-92
2020/12/18 15:04:37;;;;;;;25.50;5.22;;;19.60;99.90;;;;;;4987726;23;20088;-89
2020/12/18 15:07:08;;;;;;;32.95;7.22;;;19.50;99.90;;;;;;4986635;28;20030;-90
2020/12/18 15:09:36;;;;;;;30.17;6.40;;;19.50;99.90;;;;;;4974639;23;20059;-91
2020/12/18 15:12:04;;;;;;;24.48;6.32;;;19.50;99.90;;;;;;4974176;28;20026;-86
2020/12/18 15:14:31;;;;;;;33.45;6.15;;;19.50;99.90;;;;;;4957869;28;20027;-91
2020/12/18 15:16:59;;;;;;;26.02;5.80;;;19.50;99.90;;;;;;4974216;23;20134;-89
2020/12/18 15:19:27;;;;;;;29.20;4.70;;;19.50;99.90;;;;;;4956170;28;20034;-89
2020/12/18 15:21:54;;;;;;;24.33;5.32;;;19.40;99.90;;;;;;4974482;28;20027;-89
2020/12/18 15:24:21;;;;;;;23.65;5.25;;;19.50;99.90;;;;;;4974924;28;20642;-90
2020/12/18 15:26:52;;;;;;;26.23;6.10;;;19.50;99.90;;;;;;4974560;28;20484;-91
2020/12/18 15:29:19;;;;;;;26.38;5.25;;;19.50;99.90;;;;;;4974215;28;20057;-91
2020/12/18 15:31:46;;;;;;;23.27;6.63;;;19.50;99.90;;;;;;4974322;28;20051;-90
2020/12/18 15:34:13;;;;;;;32.10;7.50;;;19.50;99.90;;;;;;4964616;23;20534;-88
2020/12/18 15:36:41;;;;;;;30.95;7.65;;;19.50;99.90;;;;;;4974541;28;20026;-89
2020/12/18 15:39:08;;;;;;;26.48;5.05;;;19.60;99.90;;;;;;4955286;28;20476;-89
2020/12/18 15:41:44;;;;;;;27.48;4.97;;;19.60;99.90;;;;;;4969288;28;20031;-90
2020/12/18 15:44:12;;;;;;;28.85;6.13;;;19.60;99.90;;;;;;4972836;28;20500;-88
2020/12/18 15:46:39;;;;;;;31.15;6.32;;;19.50;99.90;;;;;;4973051;28;20039;-88
2020/12/18 15:49:06;;;;;;;29.77;5.88;;;19.50;99.90;;;;;;4974240;28;20038;-89
2020/12/18 15:51:33;;;;;;;22.58;4.95;;;19.50;99.90;;;;;;4972284;28;20031;-87
2020/12/18 15:54:01;;;;;;;30.02;5.55;;;19.60;99.90;;;;;;4963621;28;20027;-89
2020/12/18 15:56:29;;;;;;;28.50;5.35;;;19.60;99.90;;;;;;4962026;28;20092;-89
2020/12/18 15:58:56;;;;;;;33.67;6.05;;;19.60;99.90;;;;;;4974001;28;20042;-88
2020/12/18 16:01:23;;;;;;;27.60;5.10;;;19.70;99.90;;;;;;4973556;28;20034;-87
2020/12/18 16:03:51;;;;;;;23.48;4.88;;;19.70;99.90;;;;;;4956855;28;20035;-86
2020/12/18 16:06:21;;;;;;;27.75;4.88;;;19.70;99.90;;;;;;4974101;23;20050;-89
2020/12/18 16:08:49;;;;;;;23.75;5.47;;;19.70;99.90;;;;;;4975246;28;20094;-88
2020/12/18 16:11:17;;;;;;;24.40;5.68;;;19.70;99.90;;;;;;4968976;28;20038;-88
2020/12/18 16:13:49;;;;;;;22.33;5.72;;;19.90;99.90;;;;;;4971600;28;20058;-87
2020/12/18 16:16:16;;;;;;;27.23;4.72;;;19.80;99.90;;;;;;4974924;28;20420;-92
2020/12/18 16:18:44;;;;;;;28.80;5.68;;;19.90;99.90;;;;;;4972251;28;20031;-89
2020/12/18 16:21:12;;;;;;;22.17;5.18;;;19.90;99.90;;;;;;4955248;28;20035;-88
2020/12/18 16:23:40;;;;;;;23.25;4.65;;;19.90;99.90;;;;;;4954527;28;20031;-87
2020/12/18 16:26:07;;;;;;;25.27;5.28;;;19.90;99.90;;;;;;4956546;28;20029;-88
2020/12/18 16:28:41;;;;;;;28.83;4.82;;;19.90;99.90;;;;;;4970930;28;20035;-89
2020/12/18 16:31:08;;;;;;;25.10;5.95;;;19.90;99.90;;;;;;4972460;28;20019;-89
2020/12/18 16:33:35;;;;;;;34.40;6.22;;;20.00;99.90;;;;;;4971346;28;20030;-90
2020/12/18 16:36:02;;;;;;;28.13;5.13;;;20.00;99.90;;;;;;4971000;28;20451;-90
2020/12/18 16:38:30;;;;;;;28.05;4.82;;;20.00;99.90;;;;;;4970361;28;20567;-89
2020/12/18 16:40:57;;;;;;;22.15;5.13;;;20.00;99.90;;;;;;4973536;28;20055;-87
2020/12/18 16:43:25;;;;;;;25.48;5.43;;;20.00;99.90;;;;;;4961100;28;20129;-88
2020/12/18 16:45:53;;;;;;;28.48;5.18;;;20.00;99.90;;;;;;4955923;28;20034;-89
2020/12/18 16:48:20;;;;;;;27.08;4.80;;;20.00;99.90;;;;;;4970836;28;20502;-88
2020/12/18 16:50:49;;;;;;;24.35;5.15;;;20.00;99.90;;;;;;4952695;28;20039;-90
2020/12/18 16:53:17;;;;;;;23.67;4.68;;;20.10;99.90;;;;;;4972279;28;20503;-89
2020/12/18 16:55:44;;;;;;;19.83;4.45;;;20.10;99.90;;;;;;4973088;28;20034;-88
2020/12/18 16:58:12;;;;;;;21.58;4.60;;;20.20;99.90;;;;;;4954671;28;20038;-88
2020/12/18 17:00:39;;;;;;;21.33;4.80;;;20.10;99.90;;;;;;4949853;28;20481;-89
2020/12/18 17:03:07;;;;;;;29.73;5.72;;;20.00;99.90;;;;;;4965482;28;20113;-89
2020/12/18 17:05:35;;;;;;;30.05;5.88;;;20.00;99.90;;;;;;4970612;28;20026;-88
2020/12/18 17:08:03;;;;;;;22.55;5.32;;;19.90;99.90;;;;;;4976975;23;20060;-85
2020/12/18 17:10:31;;;;;;;25.38;4.97;;;19.90;99.90;;;;;;4974223;23;20520;-90
2020/12/18 17:12:59;;;;;;;27.33;6.32;;;19.70;99.90;;;;;;4934684;29;20043;-90
2020/12/18 17:15:26;;;;;;;22.00;4.75;;;19.60;99.90;;;;;;4969744;23;20050;-89
2020/12/18 17:17:53;;;;;;;26.90;5.40;;;19.60;99.90;;;;;;4972256;28;20031;-89
2020/12/18 17:20:21;;;;;;;25.05;5.82;;;19.60;99.90;;;;;;4972724;28;20365;-89
2020/12/18 17:22:48;;;;;;;25.63;6.18;;;19.50;99.90;;;;;;4970796;28;20046;-89
2020/12/18 17:25:16;;;;;;;25.20;5.70;;;19.50;99.90;;;;;;4979826;23;20139;-90
2020/12/18 17:27:43;;;;;;;28.23;5.70;;;19.50;99.90;;;;;;4954465;28;20364;-90
2020/12/18 17:30:11;;;;;;;28.67;5.68;;;19.50;99.90;;;;;;4970865;28;20608;-90
2020/12/18 17:32:38;;;;;;;31.52;5.70;;;19.50;99.90;;;;;;4958312;28;20161;-90
2020/12/18 17:35:05;;;;;;;20.35;4.95;;;19.60;99.90;;;;;;4971606;28;20061;-93
2020/12/18 17:37:33;;;;;;;27.98;5.80;;;19.60;99.90;;;;;;4970848;28;20496;-90
2020/12/18 17:40:00;;;;;;;30.35;6.03;;;19.60;99.90;;;;;;4957528;23;20484;-90
2020/12/18 17:42:27;;;;;;;27.95;5.85;;;19.60;99.90;;;;;;4969720;28;20034;-91
2020/12/18 17:44:55;;;;;;;26.27;4.93;;;19.60;99.90;;;;;;4959390;28;20027;-91
2020/12/18 17:47:22;;;;;;;26.17;6.03;;;19.50;99.90;;;;;;4959572;28;20117;-91
2020/12/18 17:49:49;;;;;;;34.53;6.35;;;19.50;99.90;;;;;;4972074;28;20058;-91
2020/12/18 17:52:17;;;;;;;25.23;5.38;;;19.60;99.90;;;;;;4971906;28;20279;-89
2020/12/18 17:54:44;;;;;;;26.10;5.18;;;19.60;99.90;;;;;;4953496;28;20519;-90
2020/12/18 17:57:11;;;;;;;24.15;5.13;;;19.60;99.90;;;;;;4952401;28;20034;-90
2020/12/18 17:59:38;;;;;;;37.95;6.15;;;19.60;99.90;;;;;;4969631;28;20019;-89
2020/12/18 18:02:06;;;;;;;29.75;6.45;;;19.60;99.90;;;;;;4954759;28;20031;-90
2020/12/18 18:04:33;;;;;;;25.52;5.32;;;19.70;99.90;;;;;;4969789;28;20019;-87
2020/12/18 18:07:00;;;;;;;30.45;4.97;;;19.70;99.90;;;;;;4969425;28;20027;-87
2020/12/18 18:09:27;;;;;;;27.38;5.50;;;19.60;99.90;;;;;;4955621;28;20133;-88
2020/12/18 18:12:00;;;;;;;23.52;5.13;;;19.70;99.90;;;;;;4957627;28;20054;-88
2020/12/18 18:14:28;;;;;;;19.90;4.10;;;19.70;99.90;;;;;;5005466;23;20487;-87
2020/12/18 18:16:55;;;;;;;35.05;6.38;;;19.70;99.90;;;;;;4984741;28;20021;-87
2020/12/18 18:19:24;;;;;;;24.30;4.93;;;19.70;99.90;;;;;;4975696;28;20535;-88
2020/12/18 18:21:51;;;;;;;30.02;5.97;;;19.70;99.90;;;;;;4975312;28;20483;-89
2020/12/18 18:24:18;;;;;;;28.40;5.88;;;19.80;99.90;;;;;;4974750;28;20023;-88
2020/12/18 18:26:46;;;;;;;20.25;4.95;;;19.80;99.90;;;;;;4975380;28;20427;-87
2020/12/18 18:29:13;;;;;;;28.75;5.28;;;19.80;99.90;;;;;;4992657;28;20475;-89
2020/12/18 18:31:42;;;;;;;27.90;5.53;;;19.80;99.90;;;;;;4969051;28;20022;-88
2020/12/18 18:34:10;;;;;;;21.77;4.72;;;19.80;99.90;;;;;;4975692;28;20027;-90
2020/12/18 18:36:39;;;;;;;26.42;5.90;;;19.80;99.90;;;;;;4985292;28;20018;-89
2020/12/18 18:39:10;;;;;;;24.10;4.97;;;19.80;99.90;;;;;;4981156;28;20038;-89
2020/12/18 18:41:41;;;;;;;33.80;5.47;;;19.80;99.90;;;;;;4976998;28;20023;-89
2020/12/18 18:44:09;;;;;;;28.25;5.90;;;19.80;99.90;;;;;;4963456;28;20380;-90
2020/12/18 18:46:37;;;;;;;24.35;5.70;;;19.80;99.90;;;;;;4974999;28;20034;-89
2020/12/18 18:49:07;;;;;;;27.90;5.90;;;19.80;99.90;;;;;;4974135;28;20038;-89
2020/12/18 18:51:37;;;;;;;23.73;4.65;;;19.80;99.90;;;;;;4961395;28;20069;-89
2020/12/18 18:54:07;;;;;;;32.50;5.20;;;19.80;99.90;;;;;;4968748;28;20059;-88
2020/12/18 18:56:36;;;;;;;24.17;4.88;;;19.70;99.90;;;;;;4982050;28;20544;-89
2020/12/18 18:59:04;;;;;;;26.33;5.20;;;19.70;99.90;;;;;;4958298;28;20034;-89
2020/12/18 19:01:31;;;;;;;25.30;4.68;;;19.70;99.90;;;;;;4957552;28;20400;-88
2020/12/18 19:03:58;;;;;;;33.22;5.88;;;19.70;99.90;;;;;;4974470;28;20022;-89
2020/12/18 19:06:25;;;;;;;28.75;4.75;;;19.70;99.90;;;;;;4979458;28;20062;-89
2020/12/18 19:08:53;;;;;;;31.38;5.70;;;19.70;99.90;;;;;;4956852;28;20090;-88
2020/12/18 19:11:20;;;;;;;24.88;4.18;;;19.70;99.90;;;;;;4979588;28;20052;-89
2020/12/18 19:13:47;;;;;;;24.55;5.38;;;19.80;99.90;;;;;;4990002;23;20098;-87
2020/12/18 19:16:18;;;;;;;26.38;5.28;;;19.70;99.90;;;;;;4986513;23;20054;-88
2020/12/18 19:18:45;;;;;;;21.85;4.45;;;19.70;99.90;;;;;;4983109;23;20144;-87
2020/12/18 19:21:18;;;;;;;27.83;5.78;;;19.70;99.90;;;;;;4963840;28;20022;-88
2020/12/18 19:23:45;;;;;;;18.27;4.75;;;19.80;99.90;;;;;;4987661;23;20132;-87
2020/12/18 19:26:18;;;;;;;22.33;5.30;;;19.70;99.90;;;;;;4971839;28;20074;-88
2020/12/18 19:28:46;;;;;;;22.45;4.75;;;19.80;99.90;;;;;;4969926;28;20551;-88
2020/12/18 19:31:14;;;;;;;22.00;4.85;;;19.70;99.90;;;;;;4981227;23;20062;-90
2020/12/18 19:33:41;;;;;;;21.95;4.50;;;19.80;99.90;;;;;;4979002;28;20018;-87
2020/12/18 19:36:09;;;;;;;28.48;6.63;;;19.70;99.90;;;;;;4979713;28;20027;-89
2020/12/18 19:38:36;;;;;;;27.92;5.18;;;19.70;99.90;;;;;;4979057;28;20022;-89
2020/12/18 19:41:05;;;;;;;25.65;4.53;;;19.80;99.90;;;;;;4960873;28;20035;-88
2020/12/18 19:43:35;;;;;;;23.00;4.95;;;19.70;99.90;;;;;;4974610;28;20022;-87
2020/12/18 19:46:03;;;;;;;28.08;5.40;;;19.70;99.90;;;;;;4971566;28;20464;-90
2020/12/18 19:48:30;;;;;;;28.33;4.85;;;19.60;99.90;;;;;;4991034;23;20057;-89
2020/12/18 19:50:57;;;;;;;24.00;4.88;;;19.70;99.90;;;;;;4951400;28;20409;-89
2020/12/18 19:53:24;;;;;;;23.08;4.55;;;19.60;99.90;;;;;;4969745;28;20026;-89
2020/12/18 19:55:52;;;;;;;22.15;5.30;;;19.60;99.90;;;;;;4969246;28;20101;-89
2020/12/18 19:58:19;;;;;;;21.05;5.03;;;19.60;99.90;;;;;;4969715;28;20099;-89
2020/12/18 20:00:46;;;;;;;28.08;4.03;;;19.60;99.90;;;;;;4971006;28;20458;-82
2020/12/18 20:03:15;;;;;;;30.88;5.80;;;19.50;99.90;;;;;;4969101;28;20023;-89
2020/12/18 20:05:43;;;;;;;21.38;4.53;;;19.60;99.90;;;;;;4970371;28;20018;-88
2020/12/18 20:08:10;;;;;;;23.95;5.50;;;19.70;99.90;;;;;;4950190;28;20045;-91
2020/12/18 20:10:38;;;;;;;19.85;4.63;;;19.60;99.90;;;;;;4971465;28;20045;-90
2020/12/18 20:13:05;;;;;;;26.08;4.95;;;19.60;99.90;;;;;;4951833;28;20038;-91
2020/12/18 20:15:32;;;;;;;18.70;4.28;;;19.60;99.90;;;;;;4971304;28;20483;-88
2020/12/18 20:18:01;;;;;;;25.30;4.28;;;19.60;99.90;;;;;;4971286;28;20121;-89
2020/12/18 20:20:28;;;;;;;20.27;3.95;;;19.60;99.90;;;;;;4993952;23;20054;-90
2020/12/18 20:22:55;;;;;;;22.25;5.38;;;19.50;99.90;;;;;;4978951;28;20034;-89
2020/12/18 20:25:22;;;;;;;29.77;4.55;;;19.50;99.90;;;;;;4985086;28;20110;-91
2020/12/18 20:27:50;;;;;;;16.90;3.85;;;19.60;99.90;;;;;;4976317;28;20069;-92
2020/12/18 20:30:17;;;;;;;23.50;5.35;;;19.60;99.90;;;;;;4960440;28;20026;-91
2020/12/18 20:32:44;;;;;;;22.55;3.60;;;19.60;99.90;;;;;;4974236;28;20538;-89
2020/12/18 20:35:12;;;;;;;21.67;4.50;;;19.60;99.90;;;;;;4993956;28;20098;-90
2020/12/18 20:37:39;;;;;;;20.70;4.03;;;19.60;99.90;;;;;;4991469;28;20550;-92
2020/12/18 20:40:09;;;;;;;17.67;3.33;;;19.60;99.90;;;;;;4987179;28;20022;-90
2020/12/18 20:42:41;;;;;;;21.75;4.57;;;19.60;99.90;;;;;;4973482;28;20027;-92
2020/12/18 20:45:11;;;;;;;24.83;4.07;;;19.60;99.90;;;;;;4961418;28;20484;-90
2020/12/18 20:47:40;;;;;;;19.90;4.28;;;19.70;99.90;;;;;;4981430;28;20030;-91
2020/12/18 20:50:12;;;;;;;23.27;3.58;;;19.60;99.90;;;;;;4956381;28;20043;-91
2020/12/18 20:52:40;;;;;;;17.50;3.20;;;19.70;99.90;;;;;;4972656;28;20419;-90
2020/12/18 20:55:08;;;;;;;25.98;4.25;;;19.60;99.90;;;;;;4976012;28;20027;-90
2020/12/18 20:57:35;;;;;;;22.52;5.03;;;19.60;99.90;;;;;;4973064;28;20439;-86
2020/12/18 21:00:10;;;;;;;19.55;4.28;;;19.60;99.90;;;;;;4973073;28;20033;-91
2020/12/18 21:02:37;;;;;;;25.52;3.47;;;19.60;99.90;;;;;;4975353;28;20100;-91
2020/12/18 21:05:05;;;;;;;18.33;4.55;;;19.60;99.90;;;;;;4973327;28;20057;-90
2020/12/18 21:07:32;;;;;;;19.73;4.32;;;19.70;99.90;;;;;;4973552;28;20106;-90
2020/12/18 21:09:59;;;;;;;15.23;3.05;;;19.60;99.90;;;;;;4971282;28;20031;-91
2020/12/18 21:12:27;;;;;;;17.45;4.55;;;19.60;99.90;;;;;;4962010;28;20022;-84
2020/12/18 21:14:54;;;;;;;16.90;3.83;;;19.60;99.90;;;;;;4962544;28;20056;-91
2020/12/18 21:17:22;;;;;;;19.92;3.42;;;19.70;99.90;;;;;;4977807;28;20022;-90
2020/12/18 21:19:50;;;;;;;27.77;5.47;;;19.70;99.90;;;;;;4975681;28;20027;-89